עמוד ראשי
METAR-TAF:

METAR-TAF

שדות תעופה :

קוראסאו, האנטילים ההולנדיים

קו רוחב: 12-12N, קו אורך: 068-58W, גובה: 9מטר

תצפית מזג אוויר נוכחית

הדו"ח נערך לפני 49דקות, בשעה 20:00 UTC
רוח 4קשר מכיוון צפון-מזרח, משתנה בין צפון ו מזרח/צפון-מזרח
טמפרטורת 29 צלסיוס
לחות 62%
לחץ 1011 hPa
ראות 10 קילומטר או יותר
מעט עננים בגובה 2200רגל

METAR: TNCC 222000Z 04004KT 010V070 9999 FEW022 29/21 Q1011 NOSIG

זמן: 16:49 (20:49 UTC)

תחזית

הדו"ח נערך לפני 3 שעות ו 34דקות, בשעה 17:15 UTC
תחזית בתוקף מ 22 ב 18 UTC עד 23 ב 18 UTC
רוח 5קשר מכיוון צפון-מזרח
ראות 10 קילומטר או יותר
עננים פזורים בגובה 2000רגל

TAF: TNCC 221715Z 2218/2318 04005KT 9999 SCT020

תצפיות ותחזיות מזג אוויר לגבי יותר מ- 4,000 שדות תעופה ברחבי העולם. דוחות METAR ו- TAF.

התחנות הזמינות מסומנות בנקודות צהובות ואדומות על גבי המפה.

העבר את העכבר לנקודה הצבעונית על מנת לראות את שם התחנה.

לאחר מכן, לחץ כדי לראות את תוכן ואת תחזיות מזג האוויר.

כדי לשנות את המפה: לחץ על הכפתורים הירוקים עם הפלוס השחור כדי להתקרב; על הכפתור הירוק עם המקף כדי להתרחק; או בחיצים הירוקים למפות סמוכות.


METAR-TAF: